sensor_id;sensor_type;location;lat;lon;timestamp;temperature;humidity
17813;DHT22;9030;50.792;8.320;2024-03-29T00:00:56;2.30;99.90
17813;DHT22;9030;50.792;8.320;2024-03-29T00:03:23;2.50;99.90
17813;DHT22;9030;50.792;8.320;2024-03-29T00:05:49;2.50;99.90
17813;DHT22;9030;50.792;8.320;2024-03-29T00:08:15;2.60;99.90
17813;DHT22;9030;50.792;8.320;2024-03-29T00:10:41;2.50;99.90
17813;DHT22;9030;50.792;8.320;2024-03-29T00:13:07;2.30;99.90
17813;DHT22;9030;50.792;8.320;2024-03-29T00:15:33;2.40;99.90
17813;DHT22;9030;50.792;8.320;2024-03-29T00:17:58;2.60;99.90
17813;DHT22;9030;50.792;8.320;2024-03-29T00:20:26;2.70;99.90
17813;DHT22;9030;50.792;8.320;2024-03-29T00:22:51;2.70;99.90
17813;DHT22;9030;50.792;8.320;2024-03-29T00:25:17;2.70;99.90
17813;DHT22;9030;50.792;8.320;2024-03-29T00:27:43;2.60;99.90
17813;DHT22;9030;50.792;8.320;2024-03-29T00:30:09;2.70;99.90
17813;DHT22;9030;50.792;8.320;2024-03-29T00:32:35;2.60;99.90
17813;DHT22;9030;50.792;8.320;2024-03-29T00:35:01;2.60;99.90
17813;DHT22;9030;50.792;8.320;2024-03-29T00:37:28;2.60;99.90
17813;DHT22;9030;50.792;8.320;2024-03-29T00:39:54;2.50;99.90
17813;DHT22;9030;50.792;8.320;2024-03-29T00:42:20;2.70;99.90
17813;DHT22;9030;50.792;8.320;2024-03-29T00:44:46;2.70;99.90
17813;DHT22;9030;50.792;8.320;2024-03-29T00:47:12;2.60;99.90
17813;DHT22;9030;50.792;8.320;2024-03-29T00:49:39;2.60;99.90
17813;DHT22;9030;50.792;8.320;2024-03-29T00:52:05;2.50;99.90
17813;DHT22;9030;50.792;8.320;2024-03-29T00:54:32;2.40;99.90
17813;DHT22;9030;50.792;8.320;2024-03-29T00:56:58;2.30;99.90
17813;DHT22;9030;50.792;8.320;2024-03-29T00:59:23;2.20;99.90
17813;DHT22;9030;50.792;8.320;2024-03-29T01:01:49;2.30;99.90
17813;DHT22;9030;50.792;8.320;2024-03-29T01:04:16;2.40;99.90
17813;DHT22;9030;50.792;8.320;2024-03-29T01:06:42;2.60;99.90
17813;DHT22;9030;50.792;8.320;2024-03-29T01:09:07;2.80;99.90
17813;DHT22;9030;50.792;8.320;2024-03-29T01:11:35;2.80;99.90
17813;DHT22;9030;50.792;8.320;2024-03-29T01:14:00;2.70;99.90
17813;DHT22;9030;50.792;8.320;2024-03-29T01:16:26;2.70;99.90
17813;DHT22;9030;50.792;8.320;2024-03-29T01:18:52;2.50;99.90
17813;DHT22;9030;50.792;8.320;2024-03-29T01:21:18;2.50;99.90
17813;DHT22;9030;50.792;8.320;2024-03-29T01:23:43;2.50;99.90
17813;DHT22;9030;50.792;8.320;2024-03-29T01:26:09;2.60;99.90
17813;DHT22;9030;50.792;8.320;2024-03-29T01:28:36;2.70;99.90
17813;DHT22;9030;50.792;8.320;2024-03-29T01:31:03;2.70;99.90
17813;DHT22;9030;50.792;8.320;2024-03-29T01:33:28;2.90;99.90
17813;DHT22;9030;50.792;8.320;2024-03-29T01:35:54;2.80;99.90
17813;DHT22;9030;50.792;8.320;2024-03-29T01:38:20;2.80;99.90
17813;DHT22;9030;50.792;8.320;2024-03-29T01:40:46;2.80;99.90
17813;DHT22;9030;50.792;8.320;2024-03-29T01:43:11;2.80;99.90
17813;DHT22;9030;50.792;8.320;2024-03-29T01:45:40;2.70;99.90
17813;DHT22;9030;50.792;8.320;2024-03-29T01:48:08;2.80;99.90
17813;DHT22;9030;50.792;8.320;2024-03-29T01:50:36;2.80;99.90
17813;DHT22;9030;50.792;8.320;2024-03-29T01:53:05;2.80;99.90
17813;DHT22;9030;50.792;8.320;2024-03-29T01:55:34;2.80;99.90
17813;DHT22;9030;50.792;8.320;2024-03-29T01:58:01;2.80;99.90
17813;DHT22;9030;50.792;8.320;2024-03-29T02:00:29;2.80;99.90
17813;DHT22;9030;50.792;8.320;2024-03-29T02:02:58;2.80;99.90
17813;DHT22;9030;50.792;8.320;2024-03-29T02:05:26;2.80;99.90
17813;DHT22;9030;50.792;8.320;2024-03-29T02:07:54;2.80;99.90
17813;DHT22;9030;50.792;8.320;2024-03-29T02:10:20;2.90;99.90
17813;DHT22;9030;50.792;8.320;2024-03-29T02:12:47;2.90;99.90
17813;DHT22;9030;50.792;8.320;2024-03-29T02:15:14;3.00;99.90
17813;DHT22;9030;50.792;8.320;2024-03-29T02:17:41;3.00;99.90
17813;DHT22;9030;50.792;8.320;2024-03-29T02:20:10;3.00;99.90
17813;DHT22;9030;50.792;8.320;2024-03-29T02:22:41;3.10;99.90
17813;DHT22;9030;50.792;8.320;2024-03-29T02:25:12;3.20;99.90
17813;DHT22;9030;50.792;8.320;2024-03-29T02:27:39;3.30;99.90
17813;DHT22;9030;50.792;8.320;2024-03-29T02:30:07;3.30;99.90
17813;DHT22;9030;50.792;8.320;2024-03-29T02:32:33;3.40;99.90
17813;DHT22;9030;50.792;8.320;2024-03-29T02:35:00;3.40;99.90
17813;DHT22;9030;50.792;8.320;2024-03-29T02:37:26;3.50;99.90
17813;DHT22;9030;50.792;8.320;2024-03-29T02:39:53;3.50;99.90
17813;DHT22;9030;50.792;8.320;2024-03-29T02:42:21;3.60;99.90
17813;DHT22;9030;50.792;8.320;2024-03-29T02:44:48;3.50;99.90
17813;DHT22;9030;50.792;8.320;2024-03-29T02:47:14;3.30;99.90
17813;DHT22;9030;50.792;8.320;2024-03-29T02:49:41;3.30;99.90
17813;DHT22;9030;50.792;8.320;2024-03-29T02:52:07;3.30;99.90
17813;DHT22;9030;50.792;8.320;2024-03-29T02:54:33;3.30;99.90
17813;DHT22;9030;50.792;8.320;2024-03-29T02:56:59;3.40;99.90
17813;DHT22;9030;50.792;8.320;2024-03-29T02:59:27;3.60;99.90
17813;DHT22;9030;50.792;8.320;2024-03-29T03:01:53;3.50;99.90
17813;DHT22;9030;50.792;8.320;2024-03-29T03:04:19;3.50;99.90
17813;DHT22;9030;50.792;8.320;2024-03-29T03:06:45;3.60;99.90
17813;DHT22;9030;50.792;8.320;2024-03-29T03:09:12;3.60;99.90
17813;DHT22;9030;50.792;8.320;2024-03-29T03:11:56;4.00;99.90
17813;DHT22;9030;50.792;8.320;2024-03-29T03:14:22;4.20;99.90
17813;DHT22;9030;50.792;8.320;2024-03-29T03:16:50;4.20;99.90
17813;DHT22;9030;50.792;8.320;2024-03-29T03:19:17;4.10;99.90
17813;DHT22;9030;50.792;8.320;2024-03-29T03:21:42;4.20;99.90
17813;DHT22;9030;50.792;8.320;2024-03-29T03:24:09;4.30;99.90
17813;DHT22;9030;50.792;8.320;2024-03-29T03:26:35;4.50;99.90
17813;DHT22;9030;50.792;8.320;2024-03-29T03:29:02;4.80;99.90
17813;DHT22;9030;50.792;8.320;2024-03-29T03:31:28;4.60;99.90
17813;DHT22;9030;50.792;8.320;2024-03-29T03:33:55;4.60;99.90
17813;DHT22;9030;50.792;8.320;2024-03-29T03:36:22;5.00;99.90
17813;DHT22;9030;50.792;8.320;2024-03-29T03:38:48;5.00;99.90
17813;DHT22;9030;50.792;8.320;2024-03-29T03:41:15;5.10;99.90
17813;DHT22;9030;50.792;8.320;2024-03-29T03:43:40;5.10;99.90
17813;DHT22;9030;50.792;8.320;2024-03-29T03:46:07;5.30;99.90
17813;DHT22;9030;50.792;8.320;2024-03-29T03:48:32;5.70;99.90
17813;DHT22;9030;50.792;8.320;2024-03-29T03:51:00;6.30;99.90
17813;DHT22;9030;50.792;8.320;2024-03-29T03:53:26;6.30;99.90
17813;DHT22;9030;50.792;8.320;2024-03-29T03:55:53;6.20;99.90
17813;DHT22;9030;50.792;8.320;2024-03-29T03:58:18;6.30;99.90
17813;DHT22;9030;50.792;8.320;2024-03-29T04:01:03;6.30;99.90
17813;DHT22;9030;50.792;8.320;2024-03-29T04:03:28;6.30;99.90
17813;DHT22;9030;50.792;8.320;2024-03-29T04:05:55;6.40;99.90
17813;DHT22;9030;50.792;8.320;2024-03-29T04:08:22;6.40;99.90
17813;DHT22;9030;50.792;8.320;2024-03-29T04:10:49;6.30;99.90
17813;DHT22;9030;50.792;8.320;2024-03-29T04:13:14;6.40;99.90
17813;DHT22;9030;50.792;8.320;2024-03-29T04:15:41;6.50;99.90
17813;DHT22;9030;50.792;8.320;2024-03-29T04:18:06;6.40;99.90
17813;DHT22;9030;50.792;8.320;2024-03-29T04:20:33;6.30;99.90
17813;DHT22;9030;50.792;8.320;2024-03-29T04:22:59;6.30;99.90
17813;DHT22;9030;50.792;8.320;2024-03-29T04:25:26;6.30;99.90
17813;DHT22;9030;50.792;8.320;2024-03-29T04:27:52;6.30;99.90
17813;DHT22;9030;50.792;8.320;2024-03-29T04:30:19;6.30;99.90
17813;DHT22;9030;50.792;8.320;2024-03-29T04:32:44;6.30;99.90
17813;DHT22;9030;50.792;8.320;2024-03-29T04:35:11;6.20;99.90
17813;DHT22;9030;50.792;8.320;2024-03-29T04:37:36;6.20;99.90
17813;DHT22;9030;50.792;8.320;2024-03-29T04:40:04;6.20;99.90
17813;DHT22;9030;50.792;8.320;2024-03-29T04:42:33;6.10;99.90
17813;DHT22;9030;50.792;8.320;2024-03-29T04:44:59;6.20;99.90
17813;DHT22;9030;50.792;8.320;2024-03-29T04:47:26;6.10;99.90
17813;DHT22;9030;50.792;8.320;2024-03-29T04:49:53;6.10;99.90
17813;DHT22;9030;50.792;8.320;2024-03-29T04:52:19;6.10;99.90
17813;DHT22;9030;50.792;8.320;2024-03-29T04:54:47;6.00;99.90
17813;DHT22;9030;50.792;8.320;2024-03-29T04:57:14;6.00;99.90
17813;DHT22;9030;50.792;8.320;2024-03-29T04:59:42;5.90;99.90
17813;DHT22;9030;50.792;8.320;2024-03-29T05:02:08;5.80;99.90
17813;DHT22;9030;50.792;8.320;2024-03-29T05:04:35;5.90;99.90
17813;DHT22;9030;50.792;8.320;2024-03-29T05:07:02;5.90;99.90
17813;DHT22;9030;50.792;8.320;2024-03-29T05:09:28;5.90;99.90
17813;DHT22;9030;50.792;8.320;2024-03-29T05:11:56;5.90;99.90
17813;DHT22;9030;50.792;8.320;2024-03-29T05:14:23;5.90;99.90
17813;DHT22;9030;50.792;8.320;2024-03-29T05:16:50;6.10;99.90
17813;DHT22;9030;50.792;8.320;2024-03-29T05:19:18;6.00;99.90
17813;DHT22;9030;50.792;8.320;2024-03-29T05:21:44;6.00;99.90
17813;DHT22;9030;50.792;8.320;2024-03-29T05:24:11;6.00;99.90
17813;DHT22;9030;50.792;8.320;2024-03-29T05:26:37;6.00;99.90
17813;DHT22;9030;50.792;8.320;2024-03-29T05:29:04;6.00;99.90
17813;DHT22;9030;50.792;8.320;2024-03-29T05:31:32;5.90;99.90
17813;DHT22;9030;50.792;8.320;2024-03-29T05:34:00;5.90;99.90
17813;DHT22;9030;50.792;8.320;2024-03-29T05:36:27;5.80;99.90
17813;DHT22;9030;50.792;8.320;2024-03-29T05:38:52;5.80;99.90
17813;DHT22;9030;50.792;8.320;2024-03-29T05:41:19;5.80;99.90
17813;DHT22;9030;50.792;8.320;2024-03-29T05:43:46;5.70;99.90
17813;DHT22;9030;50.792;8.320;2024-03-29T05:46:15;5.80;99.90
17813;DHT22;9030;50.792;8.320;2024-03-29T05:48:41;5.90;99.90
17813;DHT22;9030;50.792;8.320;2024-03-29T05:51:09;5.90;99.90
17813;DHT22;9030;50.792;8.320;2024-03-29T05:53:36;5.90;99.90
17813;DHT22;9030;50.792;8.320;2024-03-29T05:56:03;6.00;99.90
17813;DHT22;9030;50.792;8.320;2024-03-29T05:58:30;5.90;99.90
17813;DHT22;9030;50.792;8.320;2024-03-29T06:00:56;6.00;99.90
17813;DHT22;9030;50.792;8.320;2024-03-29T06:03:23;6.00;99.90
17813;DHT22;9030;50.792;8.320;2024-03-29T06:05:49;6.00;99.90
17813;DHT22;9030;50.792;8.320;2024-03-29T06:08:17;5.90;99.90
17813;DHT22;9030;50.792;8.320;2024-03-29T06:10:46;5.90;99.90
17813;DHT22;9030;50.792;8.320;2024-03-29T06:13:12;5.90;99.90
17813;DHT22;9030;50.792;8.320;2024-03-29T06:15:54;5.90;99.90
17813;DHT22;9030;50.792;8.320;2024-03-29T06:18:39;5.90;99.90
17813;DHT22;9030;50.792;8.320;2024-03-29T06:21:05;5.90;99.90
17813;DHT22;9030;50.792;8.320;2024-03-29T06:23:33;6.00;99.90
17813;DHT22;9030;50.792;8.320;2024-03-29T06:26:00;5.90;99.90
17813;DHT22;9030;50.792;8.320;2024-03-29T06:28:27;5.90;99.90
17813;DHT22;9030;50.792;8.320;2024-03-29T06:30:53;5.90;99.90
17813;DHT22;9030;50.792;8.320;2024-03-29T06:33:20;6.00;99.90
17813;DHT22;9030;50.792;8.320;2024-03-29T06:35:53;6.00;99.90
17813;DHT22;9030;50.792;8.320;2024-03-29T06:38:19;6.10;99.90
17813;DHT22;9030;50.792;8.320;2024-03-29T06:40:47;6.10;99.90
17813;DHT22;9030;50.792;8.320;2024-03-29T06:43:14;6.20;99.90
17813;DHT22;9030;50.792;8.320;2024-03-29T06:45:41;6.20;99.90
17813;DHT22;9030;50.792;8.320;2024-03-29T06:48:08;6.30;99.90
17813;DHT22;9030;50.792;8.320;2024-03-29T06:50:35;6.30;99.90
17813;DHT22;9030;50.792;8.320;2024-03-29T06:53:01;6.30;99.90
17813;DHT22;9030;50.792;8.320;2024-03-29T06:55:30;6.30;99.90
17813;DHT22;9030;50.792;8.320;2024-03-29T06:57:58;6.30;99.90
17813;DHT22;9030;50.792;8.320;2024-03-29T07:00:24;6.40;99.90
17813;DHT22;9030;50.792;8.320;2024-03-29T07:02:51;6.30;99.90
17813;DHT22;9030;50.792;8.320;2024-03-29T07:05:18;6.40;99.90
17813;DHT22;9030;50.792;8.320;2024-03-29T07:07:44;6.40;99.90
17813;DHT22;9030;50.792;8.320;2024-03-29T07:10:12;6.40;99.90
17813;DHT22;9030;50.792;8.320;2024-03-29T07:12:39;6.40;99.90
17813;DHT22;9030;50.792;8.320;2024-03-29T07:15:08;6.40;99.90
17813;DHT22;9030;50.792;8.320;2024-03-29T07:17:34;6.50;99.90
17813;DHT22;9030;50.792;8.320;2024-03-29T07:20:01;6.50;99.90
17813;DHT22;9030;50.792;8.320;2024-03-29T07:22:32;6.60;99.90
17813;DHT22;9030;50.792;8.320;2024-03-29T07:25:23;6.60;99.90
17813;DHT22;9030;50.792;8.320;2024-03-29T07:28:10;6.60;99.90
17813;DHT22;9030;50.792;8.320;2024-03-29T07:30:41;6.60;99.90
17813;DHT22;9030;50.792;8.320;2024-03-29T07:33:09;6.60;99.90
17813;DHT22;9030;50.792;8.320;2024-03-29T07:35:36;6.70;99.90
17813;DHT22;9030;50.792;8.320;2024-03-29T07:38:03;6.80;99.90
17813;DHT22;9030;50.792;8.320;2024-03-29T07:40:30;6.80;99.90
17813;DHT22;9030;50.792;8.320;2024-03-29T07:42:56;6.80;99.90
17813;DHT22;9030;50.792;8.320;2024-03-29T07:45:25;6.80;99.90
17813;DHT22;9030;50.792;8.320;2024-03-29T07:47:53;6.80;99.90
17813;DHT22;9030;50.792;8.320;2024-03-29T07:50:20;6.80;99.90
17813;DHT22;9030;50.792;8.320;2024-03-29T07:52:46;6.80;99.90
17813;DHT22;9030;50.792;8.320;2024-03-29T07:55:13;6.80;99.90
17813;DHT22;9030;50.792;8.320;2024-03-29T07:57:40;6.80;99.90
17813;DHT22;9030;50.792;8.320;2024-03-29T08:00:07;6.90;99.90
17813;DHT22;9030;50.792;8.320;2024-03-29T08:02:36;6.90;99.90
17813;DHT22;9030;50.792;8.320;2024-03-29T08:05:05;6.90;99.90
17813;DHT22;9030;50.792;8.320;2024-03-29T08:07:32;6.90;99.90
17813;DHT22;9030;50.792;8.320;2024-03-29T08:09:59;7.00;99.90
17813;DHT22;9030;50.792;8.320;2024-03-29T08:12:25;7.00;99.90
17813;DHT22;9030;50.792;8.320;2024-03-29T08:14:52;7.00;99.90
17813;DHT22;9030;50.792;8.320;2024-03-29T08:17:18;7.00;99.90
17813;DHT22;9030;50.792;8.320;2024-03-29T08:19:45;7.10;99.90
17813;DHT22;9030;50.792;8.320;2024-03-29T08:22:14;7.10;99.90
17813;DHT22;9030;50.792;8.320;2024-03-29T08:24:41;7.10;99.90
17813;DHT22;9030;50.792;8.320;2024-03-29T08:27:09;7.10;99.90
17813;DHT22;9030;50.792;8.320;2024-03-29T08:29:36;7.20;99.90
17813;DHT22;9030;50.792;8.320;2024-03-29T08:32:03;7.30;99.90
17813;DHT22;9030;50.792;8.320;2024-03-29T08:34:31;7.30;99.90
17813;DHT22;9030;50.792;8.320;2024-03-29T08:37:00;7.30;99.90
17813;DHT22;9030;50.792;8.320;2024-03-29T08:39:28;7.40;99.90
17813;DHT22;9030;50.792;8.320;2024-03-29T08:41:55;7.40;99.90
17813;DHT22;9030;50.792;8.320;2024-03-29T08:44:22;7.50;99.90
17813;DHT22;9030;50.792;8.320;2024-03-29T08:46:48;7.50;99.90
17813;DHT22;9030;50.792;8.320;2024-03-29T08:49:15;7.60;99.90
17813;DHT22;9030;50.792;8.320;2024-03-29T08:51:41;7.60;99.90
17813;DHT22;9030;50.792;8.320;2024-03-29T08:54:08;7.70;99.90
17813;DHT22;9030;50.792;8.320;2024-03-29T08:56:36;7.70;99.90
17813;DHT22;9030;50.792;8.320;2024-03-29T08:59:06;7.80;99.90
17813;DHT22;9030;50.792;8.320;2024-03-29T09:01:36;7.80;99.90
17813;DHT22;9030;50.792;8.320;2024-03-29T09:04:04;7.80;99.90
17813;DHT22;9030;50.792;8.320;2024-03-29T09:06:33;7.80;99.90
17813;DHT22;9030;50.792;8.320;2024-03-29T09:09:00;7.80;99.90
17813;DHT22;9030;50.792;8.320;2024-03-29T09:11:26;7.80;99.90
17813;DHT22;9030;50.792;8.320;2024-03-29T09:13:54;7.80;99.90
17813;DHT22;9030;50.792;8.320;2024-03-29T09:16:22;7.90;99.90
17813;DHT22;9030;50.792;8.320;2024-03-29T09:18:48;8.00;99.90
17813;DHT22;9030;50.792;8.320;2024-03-29T09:21:15;8.00;99.90
17813;DHT22;9030;50.792;8.320;2024-03-29T09:23:41;8.00;99.90
17813;DHT22;9030;50.792;8.320;2024-03-29T09:26:08;8.10;99.90
17813;DHT22;9030;50.792;8.320;2024-03-29T09:28:35;8.10;99.90
17813;DHT22;9030;50.792;8.320;2024-03-29T09:31:03;8.10;99.90
17813;DHT22;9030;50.792;8.320;2024-03-29T09:33:30;8.20;99.90
17813;DHT22;9030;50.792;8.320;2024-03-29T09:35:57;8.20;99.90
17813;DHT22;9030;50.792;8.320;2024-03-29T09:38:25;8.20;99.90
17813;DHT22;9030;50.792;8.320;2024-03-29T09:40:59;8.30;99.90
17813;DHT22;9030;50.792;8.320;2024-03-29T09:43:30;8.30;99.90
17813;DHT22;9030;50.792;8.320;2024-03-29T09:45:57;8.30;99.90
17813;DHT22;9030;50.792;8.320;2024-03-29T09:48:26;8.30;99.90
17813;DHT22;9030;50.792;8.320;2024-03-29T09:50:56;8.30;99.90
17813;DHT22;9030;50.792;8.320;2024-03-29T09:53:23;8.40;99.90
17813;DHT22;9030;50.792;8.320;2024-03-29T09:55:51;8.40;99.90
17813;DHT22;9030;50.792;8.320;2024-03-29T09:58:17;8.40;99.90
17813;DHT22;9030;50.792;8.320;2024-03-29T10:00:44;8.40;99.90
17813;DHT22;9030;50.792;8.320;2024-03-29T10:03:11;8.40;99.90
17813;DHT22;9030;50.792;8.320;2024-03-29T10:05:40;8.50;99.90
17813;DHT22;9030;50.792;8.320;2024-03-29T10:08:07;8.50;99.90
17813;DHT22;9030;50.792;8.320;2024-03-29T10:10:33;8.50;99.90
17813;DHT22;9030;50.792;8.320;2024-03-29T10:13:00;8.50;99.90
17813;DHT22;9030;50.792;8.320;2024-03-29T10:15:29;8.40;99.90
17813;DHT22;9030;50.792;8.320;2024-03-29T10:17:58;8.40;99.90
17813;DHT22;9030;50.792;8.320;2024-03-29T10:20:25;8.40;99.90
17813;DHT22;9030;50.792;8.320;2024-03-29T10:22:55;8.40;99.90
17813;DHT22;9030;50.792;8.320;2024-03-29T10:25:27;8.50;99.90
17813;DHT22;9030;50.792;8.320;2024-03-29T10:27:57;8.50;99.90
17813;DHT22;9030;50.792;8.320;2024-03-29T10:30:25;8.60;99.90
17813;DHT22;9030;50.792;8.320;2024-03-29T10:32:50;8.60;99.90
17813;DHT22;9030;50.792;8.320;2024-03-29T10:35:17;8.60;99.90
17813;DHT22;9030;50.792;8.320;2024-03-29T10:37:45;8.60;99.90
17813;DHT22;9030;50.792;8.320;2024-03-29T10:40:13;8.70;99.90
17813;DHT22;9030;50.792;8.320;2024-03-29T10:42:41;8.70;99.90
17813;DHT22;9030;50.792;8.320;2024-03-29T10:45:10;8.70;99.90
17813;DHT22;9030;50.792;8.320;2024-03-29T10:47:37;8.70;99.90
17813;DHT22;9030;50.792;8.320;2024-03-29T10:50:08;8.60;99.90
17813;DHT22;9030;50.792;8.320;2024-03-29T10:52:36;8.60;99.90
17813;DHT22;9030;50.792;8.320;2024-03-29T10:55:04;8.70;99.90
17813;DHT22;9030;50.792;8.320;2024-03-29T10:57:40;8.70;99.90
17813;DHT22;9030;50.792;8.320;2024-03-29T11:00:08;8.70;99.90
17813;DHT22;9030;50.792;8.320;2024-03-29T11:02:48;8.80;99.90
17813;DHT22;9030;50.792;8.320;2024-03-29T11:05:16;8.80;99.90
17813;DHT22;9030;50.792;8.320;2024-03-29T11:07:44;9.00;99.90
17813;DHT22;9030;50.792;8.320;2024-03-29T11:10:14;9.10;99.90
17813;DHT22;9030;50.792;8.320;2024-03-29T11:12:49;9.20;99.90
17813;DHT22;9030;50.792;8.320;2024-03-29T11:15:22;9.20;99.90
17813;DHT22;9030;50.792;8.320;2024-03-29T11:17:54;9.30;99.90
17813;DHT22;9030;50.792;8.320;2024-03-29T11:20:22;9.40;99.90
17813;DHT22;9030;50.792;8.320;2024-03-29T11:22:53;9.40;99.90
17813;DHT22;9030;50.792;8.320;2024-03-29T11:25:20;9.30;99.90
17813;DHT22;9030;50.792;8.320;2024-03-29T11:27:49;9.40;99.90
17813;DHT22;9030;50.792;8.320;2024-03-29T11:30:17;9.50;99.90
17813;DHT22;9030;50.792;8.320;2024-03-29T11:32:44;9.50;99.90
17813;DHT22;9030;50.792;8.320;2024-03-29T11:35:14;9.50;99.90
17813;DHT22;9030;50.792;8.320;2024-03-29T11:37:41;9.60;99.90
17813;DHT22;9030;50.792;8.320;2024-03-29T11:40:10;9.70;99.90
17813;DHT22;9030;50.792;8.320;2024-03-29T11:42:43;9.80;99.90
17813;DHT22;9030;50.792;8.320;2024-03-29T11:45:11;9.80;99.90
17813;DHT22;9030;50.792;8.320;2024-03-29T11:47:39;9.80;99.90
17813;DHT22;9030;50.792;8.320;2024-03-29T11:50:07;9.70;99.90
17813;DHT22;9030;50.792;8.320;2024-03-29T11:52:34;9.60;99.90
17813;DHT22;9030;50.792;8.320;2024-03-29T11:55:02;9.40;99.90
17813;DHT22;9030;50.792;8.320;2024-03-29T11:57:29;9.30;99.90
17813;DHT22;9030;50.792;8.320;2024-03-29T11:59:56;9.20;99.90
17813;DHT22;9030;50.792;8.320;2024-03-29T12:02:24;9.20;99.90
17813;DHT22;9030;50.792;8.320;2024-03-29T12:04:51;9.20;99.90
17813;DHT22;9030;50.792;8.320;2024-03-29T12:07:17;9.10;99.90
17813;DHT22;9030;50.792;8.320;2024-03-29T12:09:44;9.10;99.90
17813;DHT22;9030;50.792;8.320;2024-03-29T12:12:11;9.10;99.90
17813;DHT22;9030;50.792;8.320;2024-03-29T12:14:41;9.00;99.90
17813;DHT22;9030;50.792;8.320;2024-03-29T12:17:09;9.00;99.90
17813;DHT22;9030;50.792;8.320;2024-03-29T12:19:38;9.00;99.90
17813;DHT22;9030;50.792;8.320;2024-03-29T12:22:07;9.00;99.90
17813;DHT22;9030;50.792;8.320;2024-03-29T12:24:34;9.00;99.90
17813;DHT22;9030;50.792;8.320;2024-03-29T12:27:01;9.10;99.90
17813;DHT22;9030;50.792;8.320;2024-03-29T12:29:28;9.10;99.90
17813;DHT22;9030;50.792;8.320;2024-03-29T12:31:59;9.10;99.90
17813;DHT22;9030;50.792;8.320;2024-03-29T12:34:26;9.20;99.90
17813;DHT22;9030;50.792;8.320;2024-03-29T12:36:54;9.20;99.90
17813;DHT22;9030;50.792;8.320;2024-03-29T12:39:21;9.30;99.90
17813;DHT22;9030;50.792;8.320;2024-03-29T12:41:51;9.40;99.90
17813;DHT22;9030;50.792;8.320;2024-03-29T12:44:21;9.40;99.90
17813;DHT22;9030;50.792;8.320;2024-03-29T12:46:49;9.40;99.90
17813;DHT22;9030;50.792;8.320;2024-03-29T12:49:15;9.30;99.90
17813;DHT22;9030;50.792;8.320;2024-03-29T12:51:44;9.30;99.90
17813;DHT22;9030;50.792;8.320;2024-03-29T12:54:12;9.30;99.90
17813;DHT22;9030;50.792;8.320;2024-03-29T12:56:39;9.20;99.90
17813;DHT22;9030;50.792;8.320;2024-03-29T12:59:07;9.20;99.90
17813;DHT22;9030;50.792;8.320;2024-03-29T13:01:34;9.20;99.90
17813;DHT22;9030;50.792;8.320;2024-03-29T13:04:01;9.20;99.90
17813;DHT22;9030;50.792;8.320;2024-03-29T13:06:27;9.20;99.90
17813;DHT22;9030;50.792;8.320;2024-03-29T13:08:54;9.20;99.90
17813;DHT22;9030;50.792;8.320;2024-03-29T13:11:23;9.10;99.90
17813;DHT22;9030;50.792;8.320;2024-03-29T13:13:50;9.20;99.90
17813;DHT22;9030;50.792;8.320;2024-03-29T13:16:17;9.20;99.90
17813;DHT22;9030;50.792;8.320;2024-03-29T13:18:44;9.30;99.90
17813;DHT22;9030;50.792;8.320;2024-03-29T13:21:10;9.30;99.90
17813;DHT22;9030;50.792;8.320;2024-03-29T13:23:37;9.40;99.90
17813;DHT22;9030;50.792;8.320;2024-03-29T13:26:04;9.40;99.90
17813;DHT22;9030;50.792;8.320;2024-03-29T13:28:32;9.50;99.90
17813;DHT22;9030;50.792;8.320;2024-03-29T13:30:59;9.50;99.90
17813;DHT22;9030;50.792;8.320;2024-03-29T13:33:26;9.50;99.90
17813;DHT22;9030;50.792;8.320;2024-03-29T13:35:53;9.50;99.90
17813;DHT22;9030;50.792;8.320;2024-03-29T13:38:20;9.60;99.90
17813;DHT22;9030;50.792;8.320;2024-03-29T13:40:49;9.50;99.90
17813;DHT22;9030;50.792;8.320;2024-03-29T13:43:16;9.60;99.90
17813;DHT22;9030;50.792;8.320;2024-03-29T13:45:44;9.60;99.90
17813;DHT22;9030;50.792;8.320;2024-03-29T13:48:10;9.60;99.90
17813;DHT22;9030;50.792;8.320;2024-03-29T13:50:37;9.60;99.90
17813;DHT22;9030;50.792;8.320;2024-03-29T13:53:04;9.70;99.90
17813;DHT22;9030;50.792;8.320;2024-03-29T13:55:30;9.80;99.90
17813;DHT22;9030;50.792;8.320;2024-03-29T13:57:57;9.70;99.90
17813;DHT22;9030;50.792;8.320;2024-03-29T14:00:24;9.90;99.90
17813;DHT22;9030;50.792;8.320;2024-03-29T14:02:52;9.90;99.90
17813;DHT22;9030;50.792;8.320;2024-03-29T14:05:19;9.90;99.90
17813;DHT22;9030;50.792;8.320;2024-03-29T14:07:45;10.00;99.90
17813;DHT22;9030;50.792;8.320;2024-03-29T14:10:14;9.90;99.90
17813;DHT22;9030;50.792;8.320;2024-03-29T14:12:40;9.90;99.90
17813;DHT22;9030;50.792;8.320;2024-03-29T14:15:07;9.90;99.90
17813;DHT22;9030;50.792;8.320;2024-03-29T14:17:34;9.90;99.90
17813;DHT22;9030;50.792;8.320;2024-03-29T14:20:03;9.90;99.90
17813;DHT22;9030;50.792;8.320;2024-03-29T14:22:30;9.80;99.90
17813;DHT22;9030;50.792;8.320;2024-03-29T14:24:59;9.80;99.90
17813;DHT22;9030;50.792;8.320;2024-03-29T14:27:28;9.90;99.90
17813;DHT22;9030;50.792;8.320;2024-03-29T14:29:55;10.10;99.90
17813;DHT22;9030;50.792;8.320;2024-03-29T14:32:22;10.20;99.90
17813;DHT22;9030;50.792;8.320;2024-03-29T14:34:49;10.20;99.90
17813;DHT22;9030;50.792;8.320;2024-03-29T14:37:17;10.20;99.90
17813;DHT22;9030;50.792;8.320;2024-03-29T14:39:43;10.20;99.90
17813;DHT22;9030;50.792;8.320;2024-03-29T14:42:11;10.10;99.90
17813;DHT22;9030;50.792;8.320;2024-03-29T14:44:40;10.20;99.90
17813;DHT22;9030;50.792;8.320;2024-03-29T14:47:07;10.20;99.90
17813;DHT22;9030;50.792;8.320;2024-03-29T14:49:33;10.20;99.90
17813;DHT22;9030;50.792;8.320;2024-03-29T14:52:00;10.20;99.90
17813;DHT22;9030;50.792;8.320;2024-03-29T14:54:28;10.30;99.90
17813;DHT22;9030;50.792;8.320;2024-03-29T14:56:55;10.20;99.90
17813;DHT22;9030;50.792;8.320;2024-03-29T14:59:22;10.10;99.90
17813;DHT22;9030;50.792;8.320;2024-03-29T15:01:48;10.10;99.90
17813;DHT22;9030;50.792;8.320;2024-03-29T15:04:15;10.00;99.90
17813;DHT22;9030;50.792;8.320;2024-03-29T15:06:41;10.10;99.90
17813;DHT22;9030;50.792;8.320;2024-03-29T15:09:08;10.10;99.90
17813;DHT22;9030;50.792;8.320;2024-03-29T15:11:36;10.10;99.90
17813;DHT22;9030;50.792;8.320;2024-03-29T15:14:03;10.20;99.90
17813;DHT22;9030;50.792;8.320;2024-03-29T15:16:30;10.20;99.90
17813;DHT22;9030;50.792;8.320;2024-03-29T15:18:57;10.20;99.90
17813;DHT22;9030;50.792;8.320;2024-03-29T15:21:23;10.20;99.90
17813;DHT22;9030;50.792;8.320;2024-03-29T15:23:50;10.20;99.90
17813;DHT22;9030;50.792;8.320;2024-03-29T15:26:17;10.20;99.90
17813;DHT22;9030;50.792;8.320;2024-03-29T15:28:46;10.20;99.90
17813;DHT22;9030;50.792;8.320;2024-03-29T15:31:30;10.20;99.90
17813;DHT22;9030;50.792;8.320;2024-03-29T15:33:57;10.20;99.90
17813;DHT22;9030;50.792;8.320;2024-03-29T15:36:24;10.20;99.90
17813;DHT22;9030;50.792;8.320;2024-03-29T15:38:51;10.20;99.90
17813;DHT22;9030;50.792;8.320;2024-03-29T15:41:20;10.20;99.90
17813;DHT22;9030;50.792;8.320;2024-03-29T15:43:48;10.20;99.90
17813;DHT22;9030;50.792;8.320;2024-03-29T15:46:14;10.20;99.90
17813;DHT22;9030;50.792;8.320;2024-03-29T15:48:41;10.20;99.90
17813;DHT22;9030;50.792;8.320;2024-03-29T15:51:08;10.20;99.90
17813;DHT22;9030;50.792;8.320;2024-03-29T15:53:38;10.20;99.90
17813;DHT22;9030;50.792;8.320;2024-03-29T15:56:05;10.20;99.90
17813;DHT22;9030;50.792;8.320;2024-03-29T15:58:32;10.30;99.90
17813;DHT22;9030;50.792;8.320;2024-03-29T16:01:20;10.20;99.90